Time,TemperatureF,DewpointF,PressureIn,WindDirection,WindDirectionDegrees,WindSpeedMPH,WindSpeedGustMPH,Humidity,HourlyPrecipIn,Conditions,Clouds,dailyrainin,SoftwareType,DateUTC
2013-07-26 00:02:00,71.0,70.0,29.99,WSW,257,0.0,0.0,96,0.00,,,0.00,,2013-07-26 04:02:00,
2013-07-26 00:12:00,71.0,70.0,29.99,WSW,257,0.0,0.0,96,0.00,,,0.00,,2013-07-26 04:12:00,
2013-07-26 00:22:00,70.0,69.0,29.99,WSW,257,0.0,0.0,96,0.00,,,0.00,,2013-07-26 04:22:00,
2013-07-26 00:42:00,70.0,69.0,29.99,WSW,257,0.0,0.0,96,0.00,,,0.00,,2013-07-26 04:42:00,
2013-07-26 00:53:00,70.0,69.0,29.99,WSW,257,0.0,0.0,96,0.00,,,0.00,,2013-07-26 04:53:00,
2013-07-26 01:02:00,70.0,69.0,30.00,WSW,257,0.0,0.0,96,0.00,,,0.00,,2013-07-26 05:02:00,
2013-07-26 01:12:00,70.0,69.0,30.00,WSW,257,0.0,0.0,96,0.00,,,0.00,,2013-07-26 05:12:00,
2013-07-26 01:22:00,70.0,69.0,30.00,WSW,257,0.0,0.0,96,0.00,,,0.00,,2013-07-26 05:22:00,
2013-07-26 01:32:00,70.0,69.0,29.99,WSW,257,0.0,0.0,97,0.00,,,0.00,,2013-07-26 05:32:00,
2013-07-26 01:43:00,70.0,69.0,29.99,WSW,257,0.0,0.0,97,0.00,,,0.00,,2013-07-26 05:43:00,
2013-07-26 01:52:00,69.0,68.0,29.99,WSW,257,0.0,0.0,97,0.00,,,0.00,,2013-07-26 05:52:00,
2013-07-26 02:12:00,69.0,68.0,29.99,WSW,257,0.0,0.0,97,0.00,,,0.00,,2013-07-26 06:12:00,
2013-07-26 02:22:00,69.0,68.0,29.99,WSW,257,0.0,0.0,97,0.00,,,0.00,,2013-07-26 06:22:00,
2013-07-26 02:33:00,69.0,68.0,29.99,WSW,257,0.0,0.0,97,0.00,,,0.00,,2013-07-26 06:33:00,
2013-07-26 02:43:00,69.0,68.0,29.99,WSW,257,0.0,0.0,97,0.00,,,0.00,,2013-07-26 06:43:00,
2013-07-26 02:52:00,69.0,68.0,29.99,WSW,257,0.0,0.0,97,0.00,,,0.00,,2013-07-26 06:52:00,
2013-07-26 03:02:00,69.0,68.0,29.98,WSW,257,0.0,0.0,98,0.00,,,0.00,,2013-07-26 07:02:00,
2013-07-26 03:12:00,69.0,68.0,29.98,WSW,257,0.0,0.0,98,0.00,,,0.00,,2013-07-26 07:12:00,
2013-07-26 03:22:00,70.0,69.0,29.98,WSW,257,0.0,0.0,98,0.00,,,0.00,,2013-07-26 07:22:00,
2013-07-26 03:32:00,70.0,69.0,29.97,WSW,257,0.0,1.0,96,0.00,,,0.00,,2013-07-26 07:32:00,
2013-07-26 03:43:00,70.0,69.0,29.97,WSW,257,0.0,1.0,96,0.00,,,0.00,,2013-07-26 07:43:00,
2013-07-26 03:53:00,71.0,69.0,29.96,WSW,257,0.0,0.0,93,0.00,,,0.00,,2013-07-26 07:53:00,
2013-07-26 04:02:00,71.0,69.0,29.96,NE,39,0.0,0.0,92,0.00,,,0.00,,2013-07-26 08:02:00,
2013-07-26 04:12:00,71.0,69.0,29.96,NE,39,0.0,0.0,92,0.00,,,0.00,,2013-07-26 08:12:00,
2013-07-26 04:22:00,71.0,69.0,29.96,NE,40,0.0,0.0,93,0.00,,,0.00,,2013-07-26 08:22:00,
2013-07-26 04:32:00,71.0,69.0,29.96,NE,40,0.0,0.0,94,0.00,,,0.00,,2013-07-26 08:32:00,
2013-07-26 04:44:00,71.0,69.0,29.96,NE,40,0.0,0.0,94,0.00,,,0.00,,2013-07-26 08:44:00,
2013-07-26 04:52:00,71.0,69.0,29.96,NE,40,0.0,0.0,94,0.00,,,0.00,,2013-07-26 08:52:00,
2013-07-26 05:02:00,70.0,68.0,29.96,NE,40,0.0,0.0,95,0.00,,,0.00,,2013-07-26 09:02:00,
2013-07-26 05:12:00,70.0,68.0,29.96,NE,40,0.0,0.0,95,0.00,,,0.00,,2013-07-26 09:12:00,
2013-07-26 05:22:00,70.0,68.0,29.96,NE,40,0.0,0.0,95,0.00,,,0.00,,2013-07-26 09:22:00,
2013-07-26 05:32:00,70.0,68.0,29.96,NE,40,0.0,0.0,95,0.00,,,0.00,,2013-07-26 09:32:00,
2013-07-26 05:43:00,70.0,68.0,29.96,NE,40,0.0,0.0,95,0.00,,,0.00,,2013-07-26 09:43:00,
2013-07-26 05:52:00,70.0,69.0,29.96,NE,40,0.0,0.0,96,0.00,,,0.00,,2013-07-26 09:52:00,
2013-07-26 06:02:00,70.0,69.0,29.96,NE,40,0.0,0.0,96,0.00,,,0.00,,2013-07-26 10:02:00,
2013-07-26 06:12:00,70.0,69.0,29.96,NE,40,0.0,0.0,96,0.00,,,0.00,,2013-07-26 10:12:00,
2013-07-26 06:22:00,70.0,69.0,29.96,NE,40,0.0,0.0,96,0.00,,,0.00,,2013-07-26 10:22:00,
2013-07-26 06:33:00,70.0,69.0,29.96,NE,40,0.0,0.0,96,0.00,,,0.00,,2013-07-26 10:33:00,
2013-07-26 06:42:00,70.0,69.0,29.96,NE,40,0.0,0.0,96,0.00,,,0.00,,2013-07-26 10:42:00,
2013-07-26 06:52:00,71.0,69.0,29.96,ENE,70,0.0,4.0,93,0.00,,,0.00,,2013-07-26 10:52:00,
2013-07-26 07:02:00,71.0,69.0,29.96,ENE,70,0.0,0.0,94,0.00,,,0.00,,2013-07-26 11:02:00,
2013-07-26 07:12:00,71.0,69.0,29.96,ENE,70,0.0,0.0,94,0.00,,,0.00,,2013-07-26 11:12:00,
2013-07-26 07:22:00,71.0,69.0,29.97,ENE,70,0.0,0.0,94,0.00,,,0.00,,2013-07-26 11:22:00,
2013-07-26 07:32:00,71.0,69.0,29.97,ENE,70,0.0,0.0,95,0.00,,,0.00,,2013-07-26 11:32:00,
2013-07-26 07:43:00,71.0,69.0,29.97,ENE,70,0.0,0.0,95,0.00,,,0.00,,2013-07-26 11:43:00,
2013-07-26 07:52:00,70.0,68.0,29.96,ENE,70,0.0,0.0,95,0.00,,,0.00,,2013-07-26 11:52:00,
2013-07-26 08:02:00,70.0,69.0,29.97,ENE,70,0.0,0.0,96,0.01,,,0.01,,2013-07-26 12:02:00,
2013-07-26 08:12:00,70.0,69.0,29.97,ENE,70,0.0,0.0,96,0.01,,,0.01,,2013-07-26 12:12:00,
2013-07-26 08:22:00,70.0,69.0,29.96,ENE,70,0.0,0.0,96,0.02,,,0.02,,2013-07-26 12:22:00,
2013-07-26 08:33:00,70.0,69.0,29.97,ENE,70,0.0,0.0,97,0.03,,,0.03,,2013-07-26 12:33:00,
2013-07-26 08:43:00,70.0,69.0,29.97,ENE,70,0.0,0.0,97,0.03,,,0.03,,2013-07-26 12:43:00,
2013-07-26 08:53:00,70.0,69.0,29.97,ENE,70,0.0,0.0,97,0.04,,,0.04,,2013-07-26 12:53:00,
2013-07-26 09:02:00,70.0,69.0,29.97,ENE,70,0.0,0.0,97,0.03,,,0.04,,2013-07-26 13:02:00,
2013-07-26 09:12:00,70.0,69.0,29.97,ENE,70,0.0,0.0,97,0.03,,,0.04,,2013-07-26 13:12:00,
2013-07-26 09:23:00,70.0,69.0,29.97,ENE,70,0.0,0.0,97,0.02,,,0.04,,2013-07-26 13:23:00,
2013-07-26 09:43:00,70.0,69.0,29.98,ENE,70,0.0,0.0,97,0.02,,,0.05,,2013-07-26 13:43:00,
2013-07-26 09:53:00,70.0,69.0,29.98,ENE,70,0.0,0.0,98,0.01,,,0.05,,2013-07-26 13:53:00,
2013-07-26 10:02:00,70.0,69.0,29.98,NNE,28,0.0,1.0,97,0.02,,,0.06,,2013-07-26 14:02:00,
2013-07-26 10:12:00,70.0,69.0,29.98,NNE,28,0.0,1.0,97,0.02,,,0.06,,2013-07-26 14:12:00,
2013-07-26 10:22:00,70.0,69.0,29.98,NNE,28,0.0,0.0,98,0.02,,,0.06,,2013-07-26 14:22:00,
2013-07-26 10:32:00,70.0,69.0,29.99,NNE,28,0.0,0.0,98,0.02,,,0.07,,2013-07-26 14:32:00,
2013-07-26 10:43:00,70.0,69.0,29.99,NNE,28,0.0,0.0,98,0.02,,,0.07,,2013-07-26 14:43:00,
2013-07-26 10:53:00,70.0,69.0,29.98,NNE,28,0.0,0.0,98,0.03,,,0.08,,2013-07-26 14:53:00,
2013-07-26 11:02:00,70.0,69.0,29.98,NNE,30,0.0,1.0,98,0.03,,,0.09,,2013-07-26 15:02:00,
2013-07-26 11:12:00,70.0,69.0,29.98,NNE,30,0.0,1.0,98,0.03,,,0.09,,2013-07-26 15:12:00,
2013-07-26 11:22:00,70.0,69.0,29.98,ENE,66,0.0,2.0,97,0.04,,,0.10,,2013-07-26 15:22:00,
2013-07-26 11:33:00,70.0,69.0,29.98,ENE,74,0.0,1.0,97,0.04,,,0.11,,2013-07-26 15:33:00,
2013-07-26 11:43:00,70.0,69.0,29.98,ENE,74,0.0,1.0,97,0.04,,,0.11,,2013-07-26 15:43:00,
2013-07-26 12:02:00,70.0,69.0,29.99,ENE,71,0.0,0.0,97,0.07,,,0.16,,2013-07-26 16:02:00,
2013-07-26 12:14:00,70.0,69.0,29.99,ENE,71,0.0,0.0,97,0.07,,,0.16,,2013-07-26 16:14:00,
2013-07-26 12:22:00,70.0,69.0,29.99,ENE,71,0.0,0.0,98,0.09,,,0.19,,2013-07-26 16:22:00,
2013-07-26 12:32:00,70.0,69.0,29.99,ENE,71,0.0,1.0,98,0.10,,,0.21,,2013-07-26 16:32:00,
2013-07-26 12:43:00,70.0,69.0,29.99,ENE,71,0.0,1.0,98,0.10,,,0.21,,2013-07-26 16:43:00,
2013-07-26 12:54:00,70.0,69.0,29.99,ENE,62,0.0,5.0,97,0.10,,,0.23,,2013-07-26 16:54:00,
2013-07-26 13:02:00,70.0,69.0,29.99,NE,49,0.0,1.0,96,0.09,,,0.25,,2013-07-26 17:02:00,
2013-07-26 13:12:00,70.0,69.0,29.99,NE,49,0.0,1.0,96,0.09,,,0.25,,2013-07-26 17:12:00,
2013-07-26 13:22:00,70.0,69.0,29.99,WNW,285,0.0,1.0,96,0.07,,,0.26,,2013-07-26 17:22:00,
2013-07-26 13:33:00,70.0,69.0,29.99,NE,52,0.0,2.0,96,0.06,,,0.27,,2013-07-26 17:33:00,
2013-07-26 13:43:00,70.0,69.0,29.99,NE,52,0.0,2.0,96,0.06,,,0.27,,2013-07-26 17:43:00,
2013-07-26 13:53:00,70.0,69.0,29.99,NE,53,0.0,1.0,96,0.05,,,0.28,,2013-07-26 17:53:00,
2013-07-26 14:12:00,70.0,69.0,29.99,NE,38,0.0,1.0,96,0.03,,,0.28,,2013-07-26 18:12:00,
2013-07-26 14:23:00,71.0,70.0,29.98,NE,41,0.0,2.0,97,0.03,,,0.28,,2013-07-26 18:23:00,
2013-07-26 14:33:00,71.0,70.0,29.97,ENE,58,0.0,6.0,97,0.03,,,0.30,,2013-07-26 18:33:00,
2013-07-26 14:43:00,71.0,70.0,29.97,ENE,58,0.0,6.0,97,0.03,,,0.30,,2013-07-26 18:43:00,
2013-07-26 14:52:00,71.0,70.0,29.96,ENE,71,0.0,2.0,97,0.03,,,0.31,,2013-07-26 18:52:00,
2013-07-26 15:03:00,72.0,71.0,29.96,East,84,0.0,2.0,96,0.03,,,0.31,,2013-07-26 19:03:00,
2013-07-26 15:12:00,72.0,71.0,29.96,East,84,0.0,2.0,96,0.03,,,0.31,,2013-07-26 19:12:00,
2013-07-26 15:22:00,72.0,70.0,29.96,SSW,206,1.0,5.0,92,0.02,,,0.31,,2013-07-26 19:22:00,
2013-07-26 15:32:00,72.0,70.0,29.96,NW,316,0.0,1.0,94,0.02,,,0.32,,2013-07-26 19:32:00,
2013-07-26 15:43:00,72.0,70.0,29.96,NW,316,0.0,1.0,94,0.02,,,0.32,,2013-07-26 19:43:00,
2013-07-26 15:52:00,72.0,70.0,29.96,ENE,67,0.0,2.0,94,0.01,,,0.32,,2013-07-26 19:52:00,
2013-07-26 16:02:00,72.0,70.0,29.96,ENE,76,0.0,1.0,95,0.01,,,0.32,,2013-07-26 20:02:00,
2013-07-26 16:12:00,72.0,70.0,29.96,ENE,76,0.0,1.0,95,0.01,,,0.32,,2013-07-26 20:12:00,
2013-07-26 16:22:00,72.0,70.0,29.97,East,90,0.0,2.0,93,0.01,,,0.32,,2013-07-26 20:22:00,
2013-07-26 16:32:00,72.0,70.0,29.97,East,82,0.0,0.0,95,0.00,,,0.32,,2013-07-26 20:32:00,
2013-07-26 16:43:00,72.0,70.0,29.97,East,82,0.0,0.0,95,0.00,,,0.32,,2013-07-26 20:43:00,
2013-07-26 16:53:00,72.0,70.0,29.96,ENE,76,0.0,2.0,94,0.00,,,0.32,,2013-07-26 20:53:00,
2013-07-26 17:02:00,71.0,69.0,29.96,East,84,0.0,1.0,95,0.01,,,0.33,,2013-07-26 21:02:00,
2013-07-26 17:12:00,71.0,69.0,29.96,East,84,0.0,1.0,95,0.01,,,0.33,,2013-07-26 21:12:00,
2013-07-26 17:22:00,71.0,70.0,29.96,East,84,0.0,0.0,96,0.01,,,0.33,,2013-07-26 21:22:00,
2013-07-26 17:32:00,71.0,70.0,29.95,East,84,0.0,0.0,96,0.01,,,0.33,,2013-07-26 21:32:00,
2013-07-26 17:43:00,71.0,70.0,29.95,East,84,0.0,0.0,96,0.01,,,0.33,,2013-07-26 21:43:00,
2013-07-26 17:53:00,71.0,70.0,29.96,ENE,67,0.0,0.0,97,0.02,,,0.34,,2013-07-26 21:53:00,
2013-07-26 18:02:00,70.0,69.0,29.96,ENE,67,0.0,0.0,97,0.01,,,0.34,,2013-07-26 22:02:00,
2013-07-26 18:12:00,70.0,69.0,29.96,ENE,67,0.0,0.0,97,0.01,,,0.34,,2013-07-26 22:12:00,
2013-07-26 18:22:00,70.0,69.0,29.94,ENE,72,0.0,2.0,97,0.02,,,0.35,,2013-07-26 22:22:00,
2013-07-26 18:43:00,70.0,69.0,29.96,ENE,72,0.0,0.0,98,0.03,,,0.36,,2013-07-26 22:43:00,
2013-07-26 18:53:00,70.0,69.0,29.95,ENE,72,0.0,0.0,98,0.03,,,0.37,,2013-07-26 22:53:00,
2013-07-26 19:02:00,70.0,69.0,29.96,ENE,72,0.0,0.0,98,0.03,,,0.37,,2013-07-26 23:02:00,
2013-07-26 19:12:00,70.0,69.0,29.96,ENE,72,0.0,0.0,98,0.03,,,0.37,,2013-07-26 23:12:00,
2013-07-26 19:22:00,71.0,71.0,29.96,ENE,72,0.0,0.0,99,0.03,,,0.38,,2013-07-26 23:22:00,
2013-07-26 19:32:00,71.0,70.0,29.96,ENE,72,0.0,0.0,98,0.03,,,0.39,,2013-07-26 23:32:00,
2013-07-26 19:43:00,71.0,70.0,29.96,ENE,72,0.0,0.0,98,0.03,,,0.39,,2013-07-26 23:43:00,
2013-07-26 19:53:00,71.0,70.0,29.96,ENE,68,0.0,1.0,97,0.02,,,0.39,,2013-07-26 23:53:00,
2013-07-26 20:02:00,71.0,70.0,29.96,ENE,68,0.0,0.0,96,0.03,,,0.40,,2013-07-27 00:02:00,
2013-07-26 20:12:00,71.0,70.0,29.96,ENE,68,0.0,0.0,96,0.03,,,0.40,,2013-07-27 00:12:00,
2013-07-26 20:22:00,71.0,70.0,29.96,ENE,68,0.0,0.0,96,0.03,,,0.41,,2013-07-27 00:22:00,
2013-07-26 20:32:00,71.0,70.0,29.96,ENE,68,0.0,0.0,96,0.03,,,0.41,,2013-07-27 00:32:00,
2013-07-26 20:43:00,71.0,70.0,29.95,ENE,68,0.0,0.0,97,0.03,,,0.42,,2013-07-27 00:43:00,
2013-07-26 20:53:00,71.0,70.0,29.95,ENE,68,0.0,0.0,97,0.03,,,0.42,,2013-07-27 00:53:00,
2013-07-26 21:02:00,71.0,70.0,29.95,ENE,68,0.0,1.0,96,0.02,,,0.42,,2013-07-27 01:02:00,
2013-07-26 21:12:00,70.0,68.0,29.95,ENE,68,0.0,0.0,95,0.03,,,0.43,,2013-07-27 01:12:00,
2013-07-26 21:22:00,70.0,69.0,29.95,ENE,68,0.0,0.0,96,0.02,,,0.43,,2013-07-27 01:22:00,
2013-07-26 21:32:00,70.0,69.0,29.95,ENE,68,0.0,0.0,96,0.02,,,0.43,,2013-07-27 01:32:00,
2013-07-26 21:43:00,69.0,68.0,29.95,ENE,68,0.0,0.0,96,0.02,,,0.44,,2013-07-27 01:43:00,
2013-07-26 21:53:00,69.0,68.0,29.95,ENE,68,0.0,0.0,96,0.02,,,0.44,,2013-07-27 01:53:00,
2013-07-26 22:02:00,69.0,68.0,29.95,ENE,68,0.0,0.0,97,0.02,,,0.45,,2013-07-27 02:02:00,
2013-07-26 22:12:00,69.0,68.0,29.95,ENE,68,0.0,0.0,97,0.02,,,0.45,,2013-07-27 02:12:00,
2013-07-26 22:22:00,69.0,68.0,29.95,ENE,68,0.0,0.0,97,0.02,,,0.45,,2013-07-27 02:22:00,
2013-07-26 22:32:00,69.0,68.0,29.95,ENE,68,0.0,0.0,97,0.02,,,0.46,,2013-07-27 02:32:00,
2013-07-26 22:43:00,69.0,68.0,29.95,ENE,68,0.0,0.0,97,0.02,,,0.46,,2013-07-27 02:43:00,
2013-07-26 22:53:00,68.0,67.0,29.96,ENE,68,0.0,0.0,97,0.02,,,0.46,,2013-07-27 02:53:00,
2013-07-26 23:03:00,68.0,67.0,29.96,ENE,68,0.0,0.0,97,0.01,,,0.46,,2013-07-27 03:03:00,
2013-07-26 23:12:00,68.0,67.0,29.96,ENE,68,0.0,0.0,97,0.01,,,0.46,,2013-07-27 03:12:00,
2013-07-26 23:22:00,67.0,66.0,29.97,ENE,68,0.0,0.0,97,0.02,,,0.47,,2013-07-27 03:22:00,
2013-07-26 23:33:00,67.0,66.0,29.97,ENE,68,0.0,0.0,98,0.01,,,0.47,,2013-07-27 03:33:00,
2013-07-26 23:44:00,67.0,66.0,29.97,ENE,68,0.0,0.0,98,0.01,,,0.47,,2013-07-27 03:44:00,
2013-07-26 23:52:00,67.0,66.0,29.98,ENE,68,0.0,0.0,98,0.01,,,0.47,,2013-07-27 03:52:00,